Time;durP1;ratioP1;P1;durP2;ratioP2;P2;SDS_P1;SDS_P2;PMS_P1;PMS_P2;Temp;Humidity;BMP_temperature;BMP_pressure;BME280_temperature;BME280_humidity;BME280_pressure;Samples;Min_cycle;Max_cycle;Signal;HPM_P1;HPM_P2
2022/12/19 00:00:38;;;;;;;59.30;26.20;;;1.00;99.90;;;;;;4147037;28;20433;-68
2022/12/19 00:02:38;;;;;;;56.13;24.90;;;1.00;99.90;;;;;;4147505;28;20041;-67
2022/12/19 00:04:39;;;;;;;52.45;24.27;;;1.10;99.90;;;;;;4147864;28;20032;-67
2022/12/19 00:06:40;;;;;;;51.70;24.08;;;1.00;99.90;;;;;;4143933;28;20029;-67
2022/12/19 00:08:42;;;;;;;50.45;22.98;;;1.00;99.90;;;;;;4147078;28;20038;-67
2022/12/19 00:10:43;;;;;;;;;;;1.00;99.90;;;;;;4147153;28;20481;-68
2022/12/19 00:12:44;;;;;;;52.85;24.10;;;1.00;99.90;;;;;;4147288;28;19952;-68
2022/12/19 00:14:45;;;;;;;54.25;24.92;;;1.10;99.90;;;;;;4127101;28;20046;-68
2022/12/19 00:16:46;;;;;;;56.33;25.83;;;1.10;99.90;;;;;;4134931;28;20047;-68
2022/12/19 00:18:48;;;;;;;55.25;24.95;;;1.20;99.90;;;;;;4150754;28;20416;-68
2022/12/19 00:20:57;;;;;;;53.38;23.63;;;1.20;99.90;;;;;;4141804;28;20038;-68
2022/12/19 00:22:57;;;;;;;52.70;23.75;;;1.20;99.90;;;;;;4162163;28;20038;-67
2022/12/19 00:24:58;;;;;;;52.53;23.85;;;1.20;99.90;;;;;;4131352;28;20409;-67
2022/12/19 00:26:58;;;;;;;54.28;24.08;;;1.10;99.90;;;;;;4131647;28;20100;-68
2022/12/19 00:29:05;;;;;;;52.88;24.65;;;1.20;99.90;;;;;;4147318;28;20120;-68
2022/12/19 00:31:06;;;;;;;55.95;25.58;;;1.20;99.90;;;;;;4159667;28;20107;-68
2022/12/19 00:33:06;;;;;;;55.78;24.85;;;1.20;99.90;;;;;;4163237;28;20439;-68
2022/12/19 00:35:07;;;;;;;55.20;24.95;;;1.30;99.90;;;;;;4134194;28;20046;-69
2022/12/19 00:37:08;;;;;;;54.05;25.13;;;1.20;99.90;;;;;;4134887;28;20046;-68
2022/12/19 00:39:10;;;;;;;52.92;24.00;;;1.30;99.90;;;;;;4135746;28;20030;-68
2022/12/19 00:41:12;;;;;;;54.10;25.25;;;1.20;99.90;;;;;;4157115;28;20045;-68
2022/12/19 00:43:13;;;;;;;58.25;25.15;;;1.20;99.90;;;;;;4162329;28;20041;-68
2022/12/19 00:45:13;;;;;;;55.40;25.77;;;1.20;99.90;;;;;;4147355;28;20050;-69
2022/12/19 00:47:14;;;;;;;56.03;26.00;;;1.30;99.90;;;;;;4145921;28;20128;-68
2022/12/19 00:49:14;;;;;;;49.45;24.20;;;1.20;99.90;;;;;;4145381;28;20046;-68
2022/12/19 00:51:18;;;;;;;58.63;26.80;;;1.20;99.90;;;;;;4150144;28;20068;-69
2022/12/19 00:53:18;;;;;;;48.80;23.10;;;1.20;99.90;;;;;;4146573;28;20034;-68
2022/12/19 00:55:19;;;;;;;52.60;24.40;;;1.20;99.90;;;;;;4144707;28;20053;-68
2022/12/19 00:57:19;;;;;;;56.72;27.23;;;1.20;99.90;;;;;;4145683;28;20129;-68
2022/12/19 00:59:20;;;;;;;55.17;25.05;;;1.30;99.90;;;;;;4146393;28;20041;-68
2022/12/19 01:01:30;;;;;;;50.88;23.80;;;1.30;99.90;;;;;;4145349;28;20041;-68
2022/12/19 01:03:30;;;;;;;49.83;23.58;;;1.30;99.90;;;;;;4145067;28;20034;-68
2022/12/19 01:05:31;;;;;;;49.78;25.00;;;1.30;99.90;;;;;;4144852;28;20503;-68
2022/12/19 01:07:31;;;;;;;53.03;23.90;;;1.30;99.90;;;;;;4145467;28;20103;-68
2022/12/19 01:09:34;;;;;;;52.03;24.17;;;1.30;99.90;;;;;;4143048;28;20042;-69
2022/12/19 01:13:53;;;;;;;53.92;25.35;;;1.30;99.90;;;;;;4145486;28;20100;-70
2022/12/19 01:15:54;;;;;;;51.53;24.25;;;1.30;99.90;;;;;;4143874;28;20417;-69
2022/12/19 01:17:55;;;;;;;49.17;24.83;;;1.40;99.90;;;;;;4143030;28;20044;-69
2022/12/19 01:19:56;;;;;;;51.05;24.60;;;1.40;99.90;;;;;;4143936;28;20465;-69
2022/12/19 01:21:56;;;;;;;52.88;26.00;;;1.40;99.90;;;;;;4147306;28;20474;-68
2022/12/19 01:23:57;;;;;;;53.00;25.38;;;1.40;99.90;;;;;;4145759;28;20440;-69
2022/12/19 01:25:58;;;;;;;50.92;24.98;;;1.40;99.90;;;;;;4144646;28;20133;-68
2022/12/19 01:27:58;;;;;;;50.22;23.25;;;1.40;99.90;;;;;;4145314;28;20034;-68
2022/12/19 01:29:59;;;;;;;49.40;24.00;;;1.40;99.90;;;;;;4147377;28;20472;-69
2022/12/19 01:31:59;;;;;;;57.92;27.17;;;1.50;99.90;;;;;;4144992;28;20038;-69
2022/12/19 01:34:00;;;;;;;53.63;24.20;;;1.50;99.90;;;;;;4145708;28;20092;-69
2022/12/19 01:36:06;;;;;;;56.45;26.17;;;1.50;99.90;;;;;;4143995;28;20114;-68
2022/12/19 01:38:11;;;;;;;53.95;24.95;;;1.40;99.90;;;;;;4144319;28;20061;-69
2022/12/19 01:40:12;;;;;;;56.28;24.83;;;1.40;99.90;;;;;;4145256;28;20561;-69
2022/12/19 01:42:18;;;;;;;54.93;24.27;;;1.50;99.90;;;;;;4145866;28;20527;-68
2022/12/19 01:44:19;;;;;;;54.65;27.45;;;1.50;99.90;;;;;;4145717;28;20514;-68
2022/12/19 01:46:35;;;;;;;52.72;24.95;;;1.50;99.90;;;;;;4144335;28;20054;-68
2022/12/19 01:48:38;;;;;;;56.92;25.17;;;1.50;99.90;;;;;;4144847;28;20491;-69
2022/12/19 01:50:59;;;;;;;57.80;25.90;;;1.50;99.90;;;;;;4144397;28;20044;-69
2022/12/19 01:53:00;;;;;;;54.33;25.23;;;1.50;99.90;;;;;;4143238;28;20040;-69
2022/12/19 01:55:01;;;;;;;52.47;24.52;;;1.50;99.90;;;;;;4145307;28;20447;-69
2022/12/19 01:57:05;;;;;;;56.75;26.17;;;1.50;99.90;;;;;;4143621;28;20120;-68
2022/12/19 01:59:12;;;;;;;55.42;26.08;;;1.50;99.90;;;;;;4145362;28;20037;-69
2022/12/19 02:01:15;;;;;;;55.35;26.52;;;1.50;99.90;;;;;;4142176;28;20038;-68
2022/12/19 02:03:26;;;;;;;53.60;25.33;;;1.60;99.90;;;;;;4144912;28;20397;-69
2022/12/19 02:05:27;;;;;;;50.58;23.25;;;1.50;99.90;;;;;;4143823;28;20136;-69
2022/12/19 02:07:29;;;;;;;46.42;23.35;;;1.60;99.90;;;;;;4144467;28;20073;-68
2022/12/19 02:09:30;;;;;;;52.17;23.48;;;1.60;99.90;;;;;;4145200;28;20116;-69
2022/12/19 02:11:31;;;;;;;48.22;22.85;;;1.60;99.90;;;;;;4144093;28;20590;-69
2022/12/19 02:13:32;;;;;;;56.53;25.20;;;1.70;99.90;;;;;;4146315;28;20034;-68
2022/12/19 02:15:45;;;;;;;53.97;25.23;;;1.70;99.90;;;;;;4143682;28;20519;-69
2022/12/19 02:17:58;;;;;;;53.60;25.30;;;1.70;99.90;;;;;;4143179;28;20041;-68
2022/12/19 02:20:18;;;;;;;47.50;23.23;;;1.70;99.90;;;;;;4143035;28;20037;-69
2022/12/19 02:22:48;;;;;;;50.75;23.15;;;1.70;99.90;;;;;;4142838;28;20038;-68
2022/12/19 02:25:12;;;;;;;53.60;24.15;;;1.80;99.90;;;;;;4145118;28;20037;-68
2022/12/19 02:27:40;;;;;;;47.63;22.67;;;1.80;99.90;;;;;;4143793;28;20052;-68
2022/12/19 02:30:03;;;;;;;51.42;24.45;;;1.80;99.90;;;;;;4143080;28;20069;-68
2022/12/19 02:32:09;;;;;;;47.97;22.33;;;1.90;99.90;;;;;;4142526;28;20419;-69
2022/12/19 02:34:28;;;;;;;50.17;23.45;;;1.90;99.90;;;;;;4146829;28;20462;-68
2022/12/19 02:36:39;;;;;;;49.50;23.95;;;1.90;99.90;;;;;;4142379;28;20038;-69
2022/12/19 02:38:50;;;;;;;59.55;25.67;;;2.00;99.90;;;;;;4144359;28;20034;-69
2022/12/19 02:41:15;;;;;;;46.45;23.15;;;2.00;99.90;;;;;;4145925;28;20469;-69
2022/12/19 02:43:17;;;;;;;44.35;22.98;;;2.00;99.90;;;;;;4151204;28;20042;-69
2022/12/19 02:45:20;;;;;;;45.67;22.55;;;2.00;99.90;;;;;;4141803;28;20034;-69
2022/12/19 02:47:21;;;;;;;46.90;23.20;;;2.10;99.90;;;;;;4143875;28;20034;-69
2022/12/19 02:49:21;;;;;;;48.85;24.17;;;2.10;99.90;;;;;;4143995;28;20033;-69
2022/12/19 02:51:22;;;;;;;45.25;23.00;;;2.10;99.90;;;;;;4141526;28;20488;-69
2022/12/19 02:53:23;;;;;;;47.33;23.35;;;2.10;99.90;;;;;;4143722;28;20037;-69
2022/12/19 02:55:24;;;;;;;48.35;22.35;;;2.10;99.90;;;;;;4141298;28;20468;-69
2022/12/19 02:57:31;;;;;;;45.33;22.73;;;2.10;99.90;;;;;;4141807;28;20030;-69
2022/12/19 02:59:57;;;;;;;52.67;23.95;;;2.20;99.90;;;;;;4143652;28;20040;-68
2022/12/19 03:02:22;;;;;;;42.58;20.85;;;2.20;99.90;;;;;;4138740;28;20164;-69
2022/12/19 03:04:25;;;;;;;51.75;23.23;;;2.20;99.90;;;;;;4143511;28;20105;-69
2022/12/19 03:06:37;;;;;;;45.83;22.20;;;2.20;99.90;;;;;;4143160;28;20038;-69
2022/12/19 03:08:52;;;;;;;47.65;21.80;;;2.20;99.90;;;;;;4139815;28;20112;-69
2022/12/19 03:11:12;;;;;;;47.80;22.25;;;2.20;99.90;;;;;;4140435;28;20407;-69
2022/12/19 03:13:20;;;;;;;50.13;24.38;;;2.20;99.90;;;;;;4141937;28;20049;-69
2022/12/19 03:15:22;;;;;;;49.17;23.20;;;2.30;99.90;;;;;;4143303;28;20054;-69
2022/12/19 03:17:23;;;;;;;51.63;23.10;;;2.30;99.90;;;;;;4129462;28;20463;-69
2022/12/19 03:19:24;;;;;;;52.53;24.17;;;2.30;99.90;;;;;;4143180;28;20034;-69
2022/12/19 03:21:32;;;;;;;47.92;21.48;;;2.30;99.90;;;;;;4144699;28;20045;-70
2022/12/19 03:23:34;;;;;;;47.33;22.90;;;2.30;99.90;;;;;;4144285;28;20034;-69
2022/12/19 03:25:34;;;;;;;45.40;21.15;;;2.30;99.90;;;;;;4143167;28;20046;-69
2022/12/19 03:27:38;;;;;;;49.35;23.02;;;2.30;99.90;;;;;;4144122;28;20046;-68
2022/12/19 03:29:56;;;;;;;48.40;22.20;;;2.40;99.90;;;;;;4145789;28;20044;-69
2022/12/19 03:32:00;;;;;;;49.22;22.67;;;2.40;99.90;;;;;;4160572;28;20033;-69
2022/12/19 03:34:05;;;;;;;46.88;21.70;;;2.40;99.90;;;;;;4148056;28;20034;-70
2022/12/19 03:36:11;;;;;;;45.28;21.73;;;2.40;99.90;;;;;;4157709;28;20057;-69
2022/12/19 03:38:14;;;;;;;45.88;22.50;;;2.40;99.90;;;;;;4144059;28;20125;-69
2022/12/19 03:40:17;;;;;;;45.40;21.67;;;2.40;99.90;;;;;;4142529;28;20050;-70
2022/12/19 03:44:41;;;;;;;45.17;22.05;;;2.50;99.90;;;;;;4136168;28;20063;-70
2022/12/19 03:46:50;;;;;;;47.35;22.80;;;2.50;99.90;;;;;;4135859;28;20042;-69
2022/12/19 03:48:54;;;;;;;46.63;21.75;;;2.50;99.90;;;;;;4144172;28;20486;-69
2022/12/19 03:51:15;;;;;;;46.28;22.92;;;2.50;99.90;;;;;;4154132;28;20091;-69
2022/12/19 03:53:32;;;;;;;46.45;23.05;;;2.50;99.90;;;;;;4156090;28;20036;-70
2022/12/19 03:55:41;;;;;;;46.97;22.90;;;2.50;99.90;;;;;;4142721;28;20425;-70
2022/12/19 03:57:49;;;;;;;44.58;22.00;;;2.50;99.90;;;;;;4144030;28;20033;-69
2022/12/19 04:00:05;;;;;;;42.22;21.85;;;2.50;99.90;;;;;;4146760;28;20038;-69
2022/12/19 04:02:07;;;;;;;45.53;22.55;;;2.50;99.90;;;;;;4162267;28;20049;-69
2022/12/19 04:04:09;;;;;;;45.75;22.65;;;2.50;99.90;;;;;;4155803;28;20041;-70
2022/12/19 04:06:11;;;;;;;49.67;22.98;;;2.50;99.90;;;;;;4145967;28;20037;-70
2022/12/19 04:08:12;;;;;;;51.78;24.70;;;2.50;99.90;;;;;;4147002;28;20088;-69
2022/12/19 04:10:20;;;;;;;44.90;22.50;;;2.60;99.90;;;;;;4150795;28;20033;-70
2022/12/19 04:12:27;;;;;;;47.78;22.48;;;2.50;99.90;;;;;;4163725;28;20389;-70
2022/12/19 04:14:33;;;;;;;53.25;23.73;;;2.50;99.90;;;;;;4146443;28;20038;-70
2022/12/19 04:17:00;;;;;;;50.08;24.55;;;2.50;99.90;;;;;;4133035;28;20046;-69
2022/12/19 04:19:12;;;;;;;47.10;21.38;;;2.60;99.90;;;;;;4134297;28;20465;-68
2022/12/19 04:21:27;;;;;;;52.45;23.60;;;2.60;99.90;;;;;;4146450;28;20030;-70
2022/12/19 04:23:33;;;;;;;44.22;21.77;;;2.60;99.90;;;;;;4147463;28;20045;-70
2022/12/19 04:25:37;;;;;;;44.38;21.40;;;2.60;99.90;;;;;;4159686;28;20464;-70
2022/12/19 04:27:41;;;;;;;47.95;22.83;;;2.60;99.90;;;;;;4145881;28;20033;-69
2022/12/19 04:29:42;;;;;;;50.67;22.63;;;2.60;99.90;;;;;;4142825;28;20137;-70
2022/12/19 04:31:43;;;;;;;50.03;23.23;;;2.60;99.90;;;;;;4142344;28;20042;-70
2022/12/19 04:33:44;;;;;;;50.38;24.42;;;2.60;99.90;;;;;;4146799;28;20029;-70
2022/12/19 04:35:45;;;;;;;46.45;23.35;;;2.50;99.90;;;;;;4143391;28;20167;-70
2022/12/19 04:37:45;;;;;;;46.22;22.10;;;2.60;99.90;;;;;;4140982;28;20038;-70
2022/12/19 04:39:46;;;;;;;42.35;23.42;;;2.60;99.90;;;;;;4134986;28;20390;-69
2022/12/19 04:41:46;;;;;;;44.05;22.77;;;2.60;99.90;;;;;;4137794;28;20042;-70
2022/12/19 04:43:47;;;;;;;49.90;24.00;;;2.60;99.90;;;;;;4146671;28;20038;-70
2022/12/19 04:45:47;;;;;;;49.40;23.55;;;2.60;99.90;;;;;;4142896;28;20030;-70
2022/12/19 04:47:48;;;;;;;50.45;24.10;;;2.60;99.90;;;;;;4138991;28;20030;-70
2022/12/19 04:49:48;;;;;;;48.47;22.92;;;2.60;99.90;;;;;;4140786;28;20030;-70
2022/12/19 04:51:49;;;;;;;48.33;23.45;;;2.60;99.90;;;;;;4145882;28;20038;-70
2022/12/19 04:53:50;;;;;;;47.63;22.13;;;2.60;99.90;;;;;;4146313;28;20420;-70
2022/12/19 04:55:58;;;;;;;51.65;24.10;;;2.60;99.90;;;;;;4142514;28;20074;-70
2022/12/19 04:58:04;;;;;;;46.63;24.42;;;2.60;99.90;;;;;;4142479;28;20061;-71
2022/12/19 05:00:07;;;;;;;49.78;24.92;;;2.60;99.90;;;;;;4140963;28;20451;-71
2022/12/19 05:02:07;;;;;;;46.85;22.67;;;2.60;99.90;;;;;;4151748;28;20045;-70
2022/12/19 05:04:08;;;;;;;52.00;24.10;;;2.60;99.90;;;;;;4147537;28;20034;-70
2022/12/19 05:06:12;;;;;;;45.60;21.98;;;2.60;99.90;;;;;;4140703;28;20113;-69
2022/12/19 05:08:13;;;;;;;47.10;23.63;;;2.60;99.90;;;;;;4141402;28;20405;-70
2022/12/19 05:10:13;;;;;;;55.72;25.30;;;2.60;99.90;;;;;;4144591;28;20026;-70
2022/12/19 05:12:14;;;;;;;51.45;24.63;;;2.60;99.90;;;;;;4146820;28;20486;-69
2022/12/19 05:14:15;;;;;;;50.85;23.60;;;2.60;99.90;;;;;;4143968;28;20037;-70
2022/12/19 05:16:15;;;;;;;55.75;26.25;;;2.70;99.90;;;;;;4144182;28;20085;-69
2022/12/19 05:18:16;;;;;;;55.10;26.60;;;2.70;99.90;;;;;;4145847;28;20488;-70
2022/12/19 05:20:16;;;;;;;50.85;25.30;;;2.70;99.90;;;;;;4148784;28;20038;-70
2022/12/19 05:22:17;;;;;;;54.17;24.25;;;2.70;99.90;;;;;;4147936;28;20108;-69
2022/12/19 05:24:17;;;;;;;57.05;24.70;;;2.70;99.90;;;;;;4145877;28;20084;-69
2022/12/19 05:26:18;;;;;;;52.00;24.55;;;2.70;99.90;;;;;;4146635;28;20037;-69
2022/12/19 05:28:19;;;;;;;51.97;24.15;;;2.70;99.90;;;;;;4146934;28;20039;-70
2022/12/19 05:30:22;;;;;;;50.85;24.77;;;2.70;99.90;;;;;;4144711;28;20033;-70
2022/12/19 05:32:22;;;;;;;45.83;22.52;;;2.80;99.90;;;;;;4146984;28;20034;-70
2022/12/19 05:34:23;;;;;;;46.50;22.85;;;2.80;99.90;;;;;;4149096;28;20126;-69
2022/12/19 05:36:24;;;;;;;48.22;23.92;;;2.80;99.90;;;;;;4144257;28;20041;-69
2022/12/19 05:38:25;;;;;;;46.25;22.85;;;2.80;99.90;;;;;;4144945;28;20034;-70
2022/12/19 05:40:26;;;;;;;49.75;22.67;;;2.90;99.90;;;;;;4147006;28;20412;-70
2022/12/19 05:42:27;;;;;;;47.22;22.67;;;2.90;99.90;;;;;;4145778;28;20424;-70
2022/12/19 05:44:27;;;;;;;46.65;24.27;;;2.90;99.90;;;;;;4145616;28;20030;-70
2022/12/19 05:46:28;;;;;;;49.15;22.90;;;2.90;99.90;;;;;;4143991;28;20473;-69
2022/12/19 05:48:29;;;;;;;43.78;22.05;;;2.90;99.90;;;;;;4145281;28;20041;-70
2022/12/19 05:50:29;;;;;;;50.75;24.23;;;3.00;99.90;;;;;;4145631;28;20041;-70
2022/12/19 05:52:30;;;;;;;43.55;22.40;;;3.00;99.90;;;;;;4143861;28;20063;-70
2022/12/19 05:54:31;;;;;;;47.63;22.58;;;3.00;99.90;;;;;;4142169;28;20045;-70
2022/12/19 05:56:31;;;;;;;41.00;21.35;;;3.10;99.90;;;;;;4143593;28;20061;-69
2022/12/19 05:58:32;;;;;;;40.22;21.25;;;3.10;99.90;;;;;;4145401;28;20113;-69
2022/12/19 06:00:33;;;;;;;44.75;22.02;;;3.10;99.90;;;;;;4145501;28;20033;-70
2022/12/19 06:02:34;;;;;;;40.28;20.67;;;3.10;99.90;;;;;;4145521;28;20034;-70
2022/12/19 06:04:34;;;;;;;45.63;22.88;;;3.20;99.90;;;;;;4145158;28;20038;-71
2022/12/19 06:06:35;;;;;;;40.22;20.40;;;3.20;99.90;;;;;;4143629;28;20033;-70
2022/12/19 06:08:36;;;;;;;43.53;22.10;;;3.20;99.90;;;;;;4146990;28;20120;-70
2022/12/19 06:10:36;;;;;;;43.75;22.20;;;3.20;99.90;;;;;;4146425;28;20100;-69
2022/12/19 06:12:37;;;;;;;43.55;22.58;;;3.30;99.90;;;;;;4144756;28;20127;-69
2022/12/19 06:14:37;;;;;;;43.40;21.35;;;3.30;99.90;;;;;;4144996;28;20034;-70
2022/12/19 06:16:38;;;;;;;43.70;22.15;;;3.40;99.90;;;;;;4142029;28;20052;-70
2022/12/19 06:18:40;;;;;;;39.08;20.77;;;3.40;99.90;;;;;;4145124;28;20038;-70
2022/12/19 06:20:41;;;;;;;46.15;21.77;;;3.40;99.90;;;;;;4144197;28;20037;-70
2022/12/19 06:22:41;;;;;;;47.05;23.15;;;3.40;99.90;;;;;;4139980;28;20022;-71
2022/12/19 06:24:42;;;;;;;45.60;22.90;;;3.40;99.90;;;;;;4144135;28;20033;-71
2022/12/19 06:26:44;;;;;;;44.20;22.65;;;3.50;99.90;;;;;;4143721;28;20038;-71
2022/12/19 06:28:45;;;;;;;44.60;22.58;;;3.50;99.90;;;;;;4144239;28;20056;-72
2022/12/19 06:30:46;;;;;;;44.72;22.52;;;3.50;99.90;;;;;;4143036;28;20048;-72
2022/12/19 06:32:46;;;;;;;44.42;22.95;;;3.50;99.90;;;;;;4144230;28;20385;-72
2022/12/19 06:34:47;;;;;;;39.78;21.02;;;3.60;99.90;;;;;;4142582;28;20076;-72
2022/12/19 06:36:47;;;;;;;45.47;22.52;;;3.60;99.90;;;;;;4143819;28;20042;-72
2022/12/19 06:38:49;;;;;;;46.30;23.55;;;3.60;99.90;;;;;;4143502;28;20038;-72
2022/12/19 06:43:09;;;;;;;43.03;21.92;;;3.60;99.90;;;;;;4142485;28;20037;-72
2022/12/19 06:45:09;;;;;;;50.17;23.73;;;3.60;99.90;;;;;;4144190;28;20539;-72
2022/12/19 06:47:10;;;;;;;42.67;21.50;;;3.60;99.90;;;;;;4144266;28;20469;-73
2022/12/19 06:49:11;;;;;;;44.50;22.80;;;3.60;99.90;;;;;;4143276;28;20485;-72
2022/12/19 06:51:11;;;;;;;47.83;24.40;;;3.70;99.90;;;;;;4142862;28;20038;-73
2022/12/19 06:53:12;;;;;;;47.80;23.63;;;3.70;99.90;;;;;;4143725;28;20030;-73
2022/12/19 06:55:13;;;;;;;49.47;24.35;;;3.70;99.90;;;;;;4142964;28;20050;-73
2022/12/19 06:57:13;;;;;;;49.58;24.40;;;3.70;99.90;;;;;;4142815;28;20423;-72
2022/12/19 06:59:15;;;;;;;50.50;24.35;;;3.80;99.90;;;;;;4146478;28;20604;-72
2022/12/19 07:01:28;;;;;;;45.00;23.60;;;3.70;99.90;;;;;;4138761;28;20038;-73
2022/12/19 07:03:35;;;;;;;46.10;24.02;;;3.80;99.90;;;;;;4142187;28;20057;-73
2022/12/19 07:05:35;;;;;;;43.00;22.77;;;3.80;99.90;;;;;;4139889;28;20524;-72
2022/12/19 07:07:36;;;;;;;43.33;21.08;;;3.80;99.90;;;;;;4138673;28;20038;-72
2022/12/19 07:09:37;;;;;;;46.08;23.20;;;3.80;99.90;;;;;;4140625;28;20868;-73
2022/12/19 07:11:37;;;;;;;46.08;23.15;;;3.80;99.90;;;;;;4139774;28;20503;-71
2022/12/19 07:13:38;;;;;;;49.80;24.10;;;3.80;99.90;;;;;;4137325;28;20385;-72
2022/12/19 07:15:39;;;;;;;48.15;22.55;;;3.90;99.90;;;;;;4139645;28;20477;-72
2022/12/19 07:17:40;;;;;;;43.30;22.92;;;3.90;99.90;;;;;;4141162;28;20113;-71
2022/12/19 07:19:41;;;;;;;44.15;23.52;;;3.90;99.90;;;;;;4141746;28;20051;-72
2022/12/19 07:21:41;;;;;;;43.80;22.70;;;3.90;99.90;;;;;;4138365;28;20440;-73
2022/12/19 07:23:43;;;;;;;42.05;21.98;;;3.90;99.90;;;;;;4141351;28;20483;-73
2022/12/19 07:25:44;;;;;;;45.07;22.53;;;3.90;99.90;;;;;;4139345;28;20026;-72
2022/12/19 07:27:45;;;;;;;44.03;20.98;;;4.00;99.90;;;;;;4138710;28;20050;-75
2022/12/19 07:29:45;;;;;;;40.92;21.65;;;4.00;99.90;;;;;;4140008;28;20037;-75
2022/12/19 07:31:46;;;;;;;42.38;23.25;;;4.00;99.90;;;;;;4139744;28;20030;-75
2022/12/19 07:33:47;;;;;;;45.85;21.95;;;4.00;99.90;;;;;;4140399;28;20053;-75
2022/12/19 07:35:47;;;;;;;45.00;21.80;;;4.00;99.90;;;;;;4140288;28;20435;-75
2022/12/19 07:37:48;;;;;;;41.65;21.63;;;4.00;99.90;;;;;;4141700;28;20381;-75
2022/12/19 07:39:49;;;;;;;47.15;22.77;;;4.10;99.90;;;;;;4142887;28;20038;-74
2022/12/19 07:41:50;;;;;;;43.53;21.15;;;4.10;99.90;;;;;;4142730;28;20041;-75
2022/12/19 07:43:50;;;;;;;42.72;21.92;;;4.10;99.90;;;;;;4143076;28;20042;-75
2022/12/19 07:45:55;;;;;;;47.08;22.27;;;4.10;99.90;;;;;;4142644;28;20034;-74
2022/12/19 07:47:59;;;;;;;42.78;21.63;;;4.10;99.90;;;;;;4141228;28;20600;-75
2022/12/19 07:50:00;;;;;;;41.03;20.95;;;4.10;99.90;;;;;;4144045;28;20130;-74
2022/12/19 07:52:01;;;;;;;38.60;19.88;;;4.20;99.90;;;;;;4141905;28;20513;-74
2022/12/19 07:54:02;;;;;;;40.58;20.63;;;4.20;99.90;;;;;;4138844;28;20036;-73
2022/12/19 07:56:02;;;;;;;40.08;20.48;;;4.20;99.90;;;;;;4142154;28;20785;-74
2022/12/19 07:58:03;;;;;;;39.22;18.85;;;4.20;99.90;;;;;;4142169;28;20156;-75
2022/12/19 08:00:05;;;;;;;36.47;19.58;;;4.20;99.90;;;;;;4143038;28;20041;-74
2022/12/19 08:02:06;;;;;;;33.97;18.35;;;4.30;99.90;;;;;;4137858;28;20049;-73
2022/12/19 08:04:06;;;;;;;36.47;18.65;;;4.30;99.90;;;;;;4144059;28;20086;-74
2022/12/19 08:06:07;;;;;;;34.92;18.77;;;4.30;99.90;;;;;;4141043;28;20404;-74
2022/12/19 08:08:08;;;;;;;36.45;17.80;;;4.30;99.90;;;;;;4142153;28;20383;-73
2022/12/19 08:10:11;;;;;;;35.92;17.75;;;4.30;99.90;;;;;;4139196;28;20048;-73
2022/12/19 08:12:11;;;;;;;;;;;4.30;99.90;;;;;;4142190;28;20081;-73
2022/12/19 08:14:12;;;;;;;30.42;16.02;;;4.40;99.90;;;;;;4143444;28;19916;-74
2022/12/19 08:16:13;;;;;;;32.22;16.50;;;4.40;99.90;;;;;;4142171;28;20081;-74
2022/12/19 08:18:14;;;;;;;34.78;18.23;;;4.40;99.90;;;;;;4139953;28;20033;-73
2022/12/19 08:20:15;;;;;;;34.10;16.40;;;4.40;99.90;;;;;;4142266;28;20057;-74
2022/12/19 08:22:15;;;;;;;36.90;19.00;;;4.50;99.90;;;;;;4143845;28;20030;-74
2022/12/19 08:24:16;;;;;;;38.95;19.27;;;4.50;99.90;;;;;;4143703;28;20030;-74
2022/12/19 08:26:25;;;;;;;33.38;16.40;;;4.50;99.90;;;;;;4134453;28;20045;-74
2022/12/19 08:28:26;;;;;;;29.60;16.30;;;4.50;99.90;;;;;;4136833;28;20140;-74
2022/12/19 08:30:27;;;;;;;31.55;15.45;;;4.60;99.90;;;;;;4139549;28;20045;-74
2022/12/19 08:32:27;;;;;;;35.25;16.65;;;4.60;99.90;;;;;;4140003;28;20121;-75
2022/12/19 08:34:28;;;;;;;31.05;16.70;;;4.50;99.90;;;;;;4135638;28;20077;-75
2022/12/19 08:36:29;;;;;;;31.80;16.77;;;4.60;99.90;;;;;;4137204;28;20465;-75
2022/12/19 08:38:29;;;;;;;29.48;16.23;;;4.60;99.90;;;;;;4138100;28;20033;-75
2022/12/19 08:40:30;;;;;;;33.15;17.15;;;4.60;99.90;;;;;;4165757;28;20045;-75
2022/12/19 08:42:32;;;;;;;34.38;17.10;;;4.60;99.90;;;;;;4136233;28;20046;-75
2022/12/19 08:44:32;;;;;;;30.65;16.75;;;4.70;99.90;;;;;;4133083;28;20034;-74
2022/12/19 08:46:33;;;;;;;32.53;17.08;;;4.70;99.90;;;;;;4135392;28;20085;-74
2022/12/19 08:48:35;;;;;;;30.77;16.30;;;4.70;99.90;;;;;;4130143;28;20038;-73
2022/12/19 08:50:36;;;;;;;27.20;15.63;;;4.70;99.90;;;;;;4130071;28;20060;-74
2022/12/19 08:52:36;;;;;;;31.52;16.75;;;4.80;99.90;;;;;;4133808;28;20775;-74
2022/12/19 08:54:37;;;;;;;28.50;15.27;;;4.80;99.90;;;;;;4133861;28;20038;-74
2022/12/19 08:56:38;;;;;;;30.23;15.75;;;4.80;99.90;;;;;;4131332;28;20050;-74
2022/12/19 08:58:39;;;;;;;28.48;16.25;;;4.80;99.90;;;;;;4133534;28;20049;-75
2022/12/19 09:00:39;;;;;;;29.30;16.17;;;4.80;99.90;;;;;;4131660;28;20049;-75
2022/12/19 09:02:40;;;;;;;29.33;15.63;;;4.90;99.90;;;;;;4139143;28;20030;-74
2022/12/19 09:04:40;;;;;;;29.17;15.80;;;4.90;99.90;;;;;;4141180;28;20100;-74
2022/12/19 09:06:41;;;;;;;30.15;15.85;;;4.90;99.90;;;;;;4129819;28;20030;-74
2022/12/19 09:08:42;;;;;;;32.10;14.98;;;4.90;99.90;;;;;;4135814;28;20045;-74
2022/12/19 09:10:42;;;;;;;28.80;14.82;;;4.90;99.90;;;;;;4130161;28;20250;-75
2022/12/19 09:12:43;;;;;;;27.65;14.68;;;5.00;99.90;;;;;;4133301;28;20065;-75
2022/12/19 09:14:44;;;;;;;35.25;17.08;;;5.00;99.90;;;;;;4131633;28;20125;-75
2022/12/19 09:16:44;;;;;;;33.25;16.38;;;5.00;99.90;;;;;;4132693;28;20299;-75
2022/12/19 09:18:50;;;;;;;36.28;16.33;;;5.10;99.90;;;;;;4134117;28;20428;-75
2022/12/19 09:20:55;;;;;;;30.05;15.57;;;5.10;99.90;;;;;;4132122;28;20049;-75
2022/12/19 09:22:55;;;;;;;29.05;15.75;;;5.10;99.90;;;;;;4138595;28;20041;-75
2022/12/19 09:24:56;;;;;;;27.50;15.25;;;5.10;99.90;;;;;;4133582;28;20535;-75
2022/12/19 09:26:56;;;;;;;32.00;15.18;;;5.10;99.90;;;;;;4127072;28;20042;-75
2022/12/19 09:28:58;;;;;;;29.10;15.15;;;5.20;99.90;;;;;;4136902;28;20362;-75
2022/12/19 09:31:01;;;;;;;28.45;15.65;;;5.10;99.90;;;;;;4132988;28;20120;-76
2022/12/19 09:33:02;;;;;;;29.00;15.25;;;5.20;99.90;;;;;;4138230;28;20038;-75
2022/12/19 09:35:03;;;;;;;29.88;15.98;;;5.20;99.90;;;;;;4135089;28;20066;-76
2022/12/19 09:37:10;;;;;;;27.67;15.40;;;5.20;99.90;;;;;;4128967;28;20113;-75
2022/12/19 09:39:11;;;;;;;29.60;15.60;;;5.20;99.90;;;;;;4130164;28;20779;-76
2022/12/19 09:41:55;;;;;;;30.17;16.20;;;5.30;99.90;;;;;;4129326;28;20125;-76
2022/12/19 09:44:05;;;;;;;29.50;15.55;;;5.30;99.90;;;;;;4130782;28;20077;-77
2022/12/19 09:46:16;;;;;;;30.58;16.13;;;5.30;99.90;;;;;;4128813;28;20064;-76
2022/12/19 09:48:18;;;;;;;29.52;15.93;;;5.30;99.90;;;;;;4138389;28;20034;-76
2022/12/19 09:50:56;;;;;;;28.63;14.95;;;5.30;99.90;;;;;;4130392;28;20034;-76
2022/12/19 09:53:03;;;;;;;27.17;15.88;;;5.30;99.90;;;;;;4140947;28;20046;-77
2022/12/19 09:55:17;;;;;;;30.67;15.73;;;5.30;99.90;;;;;;4137752;28;20041;-77
2022/12/19 09:57:37;;;;;;;31.63;15.25;;;5.30;99.90;;;;;;4132005;28;20502;-77
2022/12/19 10:00:01;;;;;;;34.80;16.10;;;5.30;99.90;;;;;;4128830;28;20050;-72
2022/12/19 10:02:15;;;;;;;28.48;15.18;;;5.40;99.90;;;;;;4119198;28;20046;-77
2022/12/19 10:04:17;;;;;;;32.50;17.35;;;5.40;99.90;;;;;;4141251;28;20443;-77
2022/12/19 10:06:20;;;;;;;27.33;14.80;;;5.40;99.90;;;;;;4134674;28;20048;-76
2022/12/19 10:08:30;;;;;;;29.13;16.05;;;5.40;99.90;;;;;;4151086;28;20038;-77
2022/12/19 10:10:48;;;;;;;29.60;16.50;;;5.40;99.90;;;;;;4133320;28;20134;-77
2022/12/19 10:12:55;;;;;;;29.98;15.60;;;5.50;99.90;;;;;;4127198;28;20042;-77
2022/12/19 10:15:11;;;;;;;28.92;14.90;;;5.50;99.90;;;;;;4127223;28;20124;-77
2022/12/19 10:17:17;;;;;;;28.00;14.27;;;5.50;99.90;;;;;;4136295;28;20038;-77
2022/12/19 10:19:46;;;;;;;26.35;14.65;;;5.50;99.90;;;;;;4133084;28;20030;-76
2022/12/19 10:21:53;;;;;;;25.98;14.68;;;5.50;99.90;;;;;;4134210;28;20049;-76
2022/12/19 10:24:18;;;;;;;24.98;13.95;;;5.60;99.90;;;;;;4141636;28;20076;-77
2022/12/19 10:26:24;;;;;;;28.20;15.20;;;5.60;99.90;;;;;;4132662;28;20035;-77
2022/12/19 10:28:50;;;;;;;26.98;15.10;;;5.60;99.90;;;;;;4136416;28;20048;-76
2022/12/19 10:31:15;;;;;;;26.00;13.77;;;5.70;99.90;;;;;;4137878;28;20030;-76
2022/12/19 10:33:47;;;;;;;27.60;15.27;;;5.60;99.90;;;;;;4132242;28;20049;-77
2022/12/19 10:35:53;;;;;;;27.77;15.05;;;5.60;99.90;;;;;;4134330;28;20504;-76
2022/12/19 10:38:10;;;;;;;28.92;16.10;;;5.70;99.90;;;;;;4139090;28;20397;-76
2022/12/19 10:40:24;;;;;;;28.38;14.90;;;5.70;99.90;;;;;;4125757;28;20393;-76
2022/12/19 10:42:45;;;;;;;29.35;15.55;;;5.80;99.90;;;;;;4134309;28;20096;-77
2022/12/19 10:44:48;;;;;;;29.48;15.40;;;5.80;99.90;;;;;;4139095;28;20069;-76
2022/12/19 10:46:49;;;;;;;26.30;14.93;;;5.80;99.90;;;;;;4141464;28;20048;-76